WetterOnline ( https://www.wetteronline.de )

Wetter aktuell Aachen

Aktuelles Wetter: Aachen-Orsbach (231m)

6-stündlich | Neueste Meldungen
Ortszeit Temperatur Wetter
Do, 22.02. 13:00 12.4° C bewölkt
Do, 22.02. 7:00 9.0° C Sprühregen
Do, 22.02. 1:00 8.5° C leichter Regen
Mi, 21.02. 19:00 7.6° C leichter Regen
Mi, 21.02. 13:00 9.2° C bewölkt
Mi, 21.02. 7:00 7.0° C bedeckt
Mi, 21.02. 1:00 7.2° C bedeckt
Di, 20.02. 19:00 7.7° C bedeckt
Ortszeit Temperatur Wetter
Do, 22.02. 14:30 12.2° C wolkig
Do, 22.02. 14:20 12.2° C wolkig
Do, 22.02. 14:10 12.1° C Sprühregen
Do, 22.02. 14:00 12.1° C leichter Regen
Do, 22.02. 13:50 12.1° C leichter Regen
Do, 22.02. 13:40 12.2° C bewölkt
Do, 22.02. 13:30 12.2° C Sprühregen
Do, 22.02. 13:00 12.4° C bewölkt
Do, 22.02. 12:30 12.3° C bedeckt
Do, 22.02. 12:00 12.3° C bewölkt
Do, 22.02. 11:30 12.0° C bewölkt
Ortszeit Relative Feuchte Sichtweite
Do, 22.02. 13:00 82% 65 km
Do, 22.02. 7:00 93% 15 km
Do, 22.02. 1:00 92% 20 km
Mi, 21.02. 19:00 84% 15 km
Mi, 21.02. 13:00 72% 40 km
Mi, 21.02. 7:00 88% 29 km
Mi, 21.02. 1:00 85% 24 km
Di, 20.02. 19:00 80% 27 km
Ortszeit Relative Feuchte Sichtweite
Do, 22.02. 14:30 82% >70 km
Do, 22.02. 14:20 82% -
Do, 22.02. 14:10 85% -
Do, 22.02. 14:00 85% 45 km
Do, 22.02. 13:50 85% -
Do, 22.02. 13:40 85% -
Do, 22.02. 13:30 85% 10 km
Do, 22.02. 13:00 82% 65 km
Do, 22.02. 12:30 83% >70 km
Do, 22.02. 12:00 82% >70 km
Do, 22.02. 11:30 84% >70 km
Ortszeit Niederschlagsmenge Niederschlagsart
Do, 22.02. 13:00 0.1 l/m2 in 6 Std. Regen
Do, 22.02. 7:00 11 l/m2 in 12 Std. Regen
Do, 22.02. 1:00 7 l/m2 in 6 Std. Regen
Mi, 21.02. 19:00 1 l/m2 in 12 Std. Regen
Mi, 21.02. 13:00 0.0 l/m2 in 6 Std. -
Mi, 21.02. 7:00 0.1 l/m2 in 12 Std. Sprühregen
Mi, 21.02. 1:00 0.0 l/m2 in 6 Std. -
Di, 20.02. 19:00 0.0 l/m2 in 12 Std. -
Ortszeit Niederschlagsmenge Niederschlagsart
Do, 22.02. 14:30 <0.05 l/m2 in 30 Min Schneeregen
Do, 22.02. 14:20 keine Meldung -
Do, 22.02. 14:10 keine Meldung -
Do, 22.02. 14:00 <0.05 l/m2 in 1 Std. Regen
Do, 22.02. 13:50 keine Meldung -
Do, 22.02. 13:40 keine Meldung -
Do, 22.02. 13:30 <0.05 l/m2 in 30 Min -
Do, 22.02. 13:00 0.0 l/m2 in 1 Std. Regen
Do, 22.02. 12:30 0.0 l/m2 in 30 Min -
Do, 22.02. 12:00 0.0 l/m2 in 1 Std. -
Do, 22.02. 11:30 0.0 l/m2 in 30 Min -
Ortszeit Stärke Spitze Richtung
km/h Bft. km/h Grad Sektor
Do, 22.02. 13:00 30 5 48 210° SW
Do, 22.02. 7:00 22 4 54 190° S
Do, 22.02. 1:00 37 5 63 220° SW
Mi, 21.02. 19:00 40 6 61 200° S
Mi, 21.02. 13:00 35 5 56 180° S
Mi, 21.02. 7:00 22 4 44 230° SW
Mi, 21.02. 1:00 32 5 47 230° SW
Di, 20.02. 19:00 20 4 46 230° SW
Ortszeit Stärke Spitze Richtung
km/h Bft. km/h Grad Sektor
Do, 22.02. 14:30 37 5 56 200° S
Do, 22.02. 14:20 37 5 - 200° S
Do, 22.02. 14:10 35 5 - 200° S
Do, 22.02. 14:00 39 6 54 200° S
Do, 22.02. 13:50 39 6 - 200° S
Do, 22.02. 13:40 35 5 - 200° S
Do, 22.02. 13:30 35 5 52 210° SW
Do, 22.02. 13:00 30 5 48 210° SW
Do, 22.02. 12:30 30 5 48 200° S
Do, 22.02. 12:00 33 5 44 200° S
Do, 22.02. 11:30 25 4 36 200° S
Ortszeit Untergrenze Bedeckung Gattung
total tief tief mittel hoch
Do, 22.02. 13:00 570 m 8/8 7/8 - - -
Do, 22.02. 7:00 1110 m 7/8 7/8 - - -
Do, 22.02. 1:00 390 m 8/8 8/8 - - -
Mi, 21.02. 19:00 1410 m 7/8 7/8 - - -
Mi, 21.02. 13:00 2400 m 8/8 7/8 - - -
Mi, 21.02. 7:00 420 m 8/8 8/8 - - -
Mi, 21.02. 1:00 450 m 8/8 8/8 - - -
Di, 20.02. 19:00 3000 m 8/8 8/8 - - -
Ortszeit Bedeckungsgrad in Achtel und Wolkenuntergrenze
Do, 22.02. 14:30 3(720m) 7(3000m) 8(5100m)
Do, 22.02. 14:20 3(720m) 7(3000m) 8(5100m)
Do, 22.02. 14:10 8
Do, 22.02. 14:00 7(660m) 8(3000m) 8(3600m)
Do, 22.02. 13:50 7(660m) 8(3000m) 8(3600m)
Do, 22.02. 13:40 7
Do, 22.02. 13:30 7(600m)
Do, 22.02. 13:00 7(570m) 8(4200m)
Do, 22.02. 12:30 4(510m) 7(660m) 8(930m)
Do, 22.02. 12:00 6(630m) 7(1500m) 8(6000m)
Do, 22.02. 11:30 5(540m) 7(1290m) 8(4500m)
Ortszeit Luftdruck NN (hPa) Tendenz (hPa in 3 Std.)
Do, 22.02. 13:00 989 - 4,3
Do, 22.02. 7:00 997 - 2,1
Do, 22.02. 1:00 1001 - 2,2
Mi, 21.02. 19:00 1007 - 3,9
Mi, 21.02. 13:00 1014 - 4,6
Mi, 21.02. 7:00 1021 - 1,5
Mi, 21.02. 1:00 1025 - 1,7
Di, 20.02. 19:00 1027 - 0,7
Ortszeit Luftdruck NN (hPa) Tendenz (hPa in 3 Std.)
Do, 22.02. 14:30 985 - 5,2
Do, 22.02. 14:20 985 keine Meldung
Do, 22.02. 14:10 986 keine Meldung
Do, 22.02. 14:00 986 - 5,2
Do, 22.02. 13:50 986 keine Meldung
Do, 22.02. 13:40 987 keine Meldung
Do, 22.02. 13:30 987 - 5,0
Do, 22.02. 13:00 989 - 4,3
Do, 22.02. 12:30 989 - 4,2
Do, 22.02. 12:00 990 - 4,2
Do, 22.02. 11:30 991 - 4,2
Ortszeit Schneehöhe (cm)
Do, 22.02. 13:00 0
Do, 22.02. 7:00 0
Do, 22.02. 1:00 0
Mi, 21.02. 19:00 0
Mi, 21.02. 13:00 0
Mi, 21.02. 7:00 0
Mi, 21.02. 1:00 0
Di, 20.02. 19:00 0
Ortszeit Schneehöhe (cm)
Do, 22.02. 14:30 0
Do, 22.02. 14:20 0
Do, 22.02. 14:10 -
Do, 22.02. 14:00 0
Do, 22.02. 13:50 0
Do, 22.02. 13:40 -
Do, 22.02. 13:30 0
Do, 22.02. 13:00 0
Do, 22.02. 12:30 0
Do, 22.02. 12:00 0
Do, 22.02. 11:30 0
Link zu dieser Seite / Seite empfehlen

Das Wetter in ...